Terminal Aerodrome Forecast
Issued by NWS Chicago, IL

Home | Current Version | Previous Version | Graphics & Text | Print | Product List | Glossary Off
Versions: 1 2 3 4 5 6 7 8 9 10 11 12 13 14 15 16 17 18 19 20 21 22 23 24

711
FTUS43 KLOT 270303 AAA
TAFRFD
TAF AMD
KRFD 270303Z 2703/2724 14005KT 6SM BR VCSH SCT015 OVC040
      TEMPO 2703/2704 5SM -TSRA BKN015 OVC040CB
     FM270700 VRB03KT 4SM BR OVC020
     FM271400 04008KT P6SM SCT025 BKN040
     FM272000 04012KT P6SM SCT030 BKN050=

USA.gov is the U.S. government's official web portal to all federal, state and local government web resources and services.